Time;durP1;ratioP1;P1;durP2;ratioP2;P2;SDS_P1;SDS_P2;PMS_P1;PMS_P2;Temp;Humidity;BMP_temperature;BMP_pressure;BME280_temperature;BME280_humidity;BME280_pressure;Samples;Min_cycle;Max_cycle;Signal;HPM_P1;HPM_P2
2021/12/16 00:02:35;;;;;;;;;;;22.50;57.60;;;;;;4974211;28;19924;-80
2021/12/16 00:08:07;;;;;;;;;;;22.50;57.60;;;;;;4931957;28;20350;-78
2021/12/16 00:10:40;;;;;;;;;;;22.50;57.80;;;;;;4958338;28;19969;-79
2021/12/16 00:29:56;;;;;;;;;;;22.70;58.00;;;;;;4920427;29;20001;-78
2021/12/16 00:34:46;;;;;;;;;;;22.60;56.10;;;;;;4919578;29;19980;-80
2021/12/16 00:37:12;;;;;;;;;;;22.50;55.80;;;;;;4946424;29;19911;-78
2021/12/16 00:39:38;;;;;;;;;;;22.50;55.90;;;;;;4938550;29;19914;-78
2021/12/16 00:42:09;;;;;;;;;;;22.50;55.80;;;;;;4955853;28;19918;-78
2021/12/16 00:45:02;;;;;;;;;;;22.50;55.70;;;;;;4952690;28;19937;-78
2021/12/16 00:47:29;;;;;;;;;;;22.50;55.60;;;;;;4972597;28;20005;-78
2021/12/16 00:50:05;;;;;;;;;;;22.50;55.80;;;;;;4957610;28;19910;-78
2021/12/16 00:57:49;;;;;;;;;;;22.50;56.80;;;;;;4957030;28;19949;-78
2021/12/16 01:00:16;;;;;;;;;;;22.50;56.90;;;;;;4957463;28;19917;-78
2021/12/16 01:02:56;;;;;;;;;;;22.50;57.00;;;;;;4941569;28;19932;-78
2021/12/16 01:05:53;;;;;;;;;;;22.50;57.20;;;;;;4957639;28;19910;-78
2021/12/16 01:08:46;;;;;;;;;;;22.50;57.40;;;;;;4971168;28;19917;-78
2021/12/16 01:33:48;;;;;;;;;;;22.40;58.40;;;;;;4918631;29;19921;-72
2021/12/16 01:36:33;;;;;;;;;;;22.40;58.10;;;;;;4918463;29;20006;-72
2021/12/16 01:39:30;;;;;;;;;;;22.50;57.90;;;;;;4918711;29;19911;-72
2021/12/16 01:55:03;;;;;;;;;;;22.50;58.20;;;;;;4935360;29;19910;-72
2021/12/16 01:57:49;;;;;;;;;;;22.40;57.70;;;;;;4918195;29;20435;-71
2021/12/16 02:00:24;;;;;;;;;;;22.50;57.50;;;;;;4918008;29;19911;-71
2021/12/16 02:02:51;;;;;;;;;;;22.40;58.80;;;;;;4918673;29;20295;-71
2021/12/16 02:10:35;;;;;;;;;;;22.50;59.40;;;;;;4902505;29;19955;-71
2021/12/16 02:13:28;;;;;;;;;;;22.40;59.50;;;;;;4918623;29;20051;-71
2021/12/16 02:32:45;;;;;;;;;;;22.50;58.60;;;;;;4917899;29;19958;-72
2021/12/16 02:35:33;;;;;;;;;;;22.50;58.90;;;;;;4917613;29;19911;-72
2021/12/16 02:38:03;;;;;;;;;;;22.50;58.80;;;;;;4917721;29;20500;-72
2021/12/16 02:40:30;;;;;;;;;;;22.50;58.60;;;;;;4917714;29;19911;-73
2021/12/16 02:43:02;;;;;;;;;;;22.50;58.70;;;;;;4917690;29;19915;-73
2021/12/16 02:48:30;;;;;;;;;;;22.50;58.50;;;;;;4917418;29;19915;-72
2021/12/16 02:50:57;;;;;;;;;;;22.50;59.20;;;;;;4917662;29;19911;-72
2021/12/16 02:53:24;;;;;;;;;;;22.50;58.80;;;;;;4917686;29;19911;-72
2021/12/16 02:55:49;;;;;;;;;;;22.50;59.20;;;;;;4934203;29;19918;-72
2021/12/16 02:58:15;;;;;;;;;;;22.50;58.70;;;;;;4934300;29;19910;-72
2021/12/16 03:00:47;;;;;;;;;;;22.50;58.70;;;;;;4934485;29;19911;-73
2021/12/16 03:03:12;;;;;;;;;;;22.50;58.80;;;;;;4917508;29;19924;-72
2021/12/16 03:05:38;;;;;;;;;;;22.50;58.60;;;;;;4933764;29;19911;-73
2021/12/16 03:08:06;;;;;;;;;;;22.50;58.70;;;;;;4936017;29;19915;-73
2021/12/16 03:11:05;;;;;;;;;;;22.50;58.80;;;;;;4923691;29;20002;-73
2021/12/16 03:16:19;;;;;;;;;;;22.50;58.90;;;;;;4905142;29;19933;-72
2021/12/16 03:21:25;;;;;;;;;;;22.50;59.20;;;;;;4938651;29;20009;-72
2021/12/16 03:26:55;;;;;;;;;;;22.50;58.90;;;;;;4923503;29;19910;-72
2021/12/16 03:35:24;;;;;;;;;;;22.50;58.80;;;;;;4938908;29;19910;-72
2021/12/16 03:37:47;;;;;;;;;;;22.50;58.90;;;;;;4940042;29;19914;-72
2021/12/16 03:40:13;;;;;;;;;;;22.50;59.10;;;;;;4940728;29;20367;-72
2021/12/16 03:43:00;;;;;;;;;;;22.50;59.60;;;;;;4939326;29;19915;-72
2021/12/16 03:48:27;;;;;;;;;;;22.50;59.20;;;;;;4939488;29;19920;-73
2021/12/16 03:50:53;;;;;;;;;;;22.50;59.20;;;;;;4939177;29;19911;-73
2021/12/16 03:53:20;;;;;;;;;;;22.50;59.40;;;;;;4939096;29;19910;-72
2021/12/16 03:55:47;;;;;;;;;;;22.50;59.10;;;;;;4938723;29;20009;-73
2021/12/16 03:58:13;;;;;;;;;;;22.50;59.50;;;;;;4940313;29;19914;-73
2021/12/16 04:00:45;;;;;;;;;;;22.50;59.40;;;;;;4939405;29;19966;-73
2021/12/16 04:03:12;;;;;;;;;;;22.50;59.60;;;;;;4939089;29;20372;-72
2021/12/16 04:05:41;;;;;;;;;;;22.50;60.40;;;;;;4938548;29;20307;-73
2021/12/16 04:08:08;;;;;;;;;;;22.50;59.80;;;;;;4939101;29;19990;-72
2021/12/16 04:10:49;;;;;;;;;;;22.60;59.50;;;;;;4938892;29;19911;-72
2021/12/16 04:13:19;;;;;;;;;;;22.50;59.20;;;;;;4939333;29;19918;-72
2021/12/16 04:15:50;;;;;;;;;;;22.50;58.90;;;;;;4922702;29;19911;-75
2021/12/16 04:18:18;;;;;;;;;;;22.50;59.60;;;;;;4945171;29;19921;-73
2021/12/16 04:20:45;;;;;;;;;;;22.60;58.90;;;;;;4935380;29;19914;-73
2021/12/16 04:23:11;;;;;;;;;;;22.60;58.90;;;;;;4937063;29;20005;-73
2021/12/16 04:25:40;;;;;;;;;;;22.60;59.20;;;;;;4919749;29;19910;-73
2021/12/16 04:28:12;;;;;;;;;;;22.50;59.20;;;;;;4919921;29;19910;-73
2021/12/16 04:30:39;;;;;;;;;;;22.50;59.30;;;;;;4919884;29;20108;-73
2021/12/16 04:33:06;;;;;;;;;;;22.50;59.60;;;;;;4919966;29;19962;-73
2021/12/16 04:35:33;;;;;;;;;;;22.50;59.40;;;;;;4919661;29;19921;-73
2021/12/16 04:37:59;;;;;;;;;;;22.50;59.30;;;;;;4919757;29;19911;-73
2021/12/16 04:40:28;;;;;;;;;;;22.60;59.70;;;;;;4920933;28;20192;-73
2021/12/16 04:43:02;;;;;;;;;;;22.50;59.20;;;;;;4938654;29;19918;-73
2021/12/16 04:45:36;;;;;;;;;;;22.50;59.30;;;;;;4938150;29;19910;-73
2021/12/16 04:48:04;;;;;;;;;;;22.50;59.70;;;;;;4938543;29;19957;-73
2021/12/16 04:50:34;;;;;;;;;;;22.50;59.40;;;;;;4922480;29;20299;-73
2021/12/16 04:52:59;;;;;;;;;;;22.50;59.40;;;;;;4938314;29;19911;-73
2021/12/16 04:55:28;;;;;;;;;;;22.50;60.30;;;;;;4922429;29;19910;-73
2021/12/16 04:57:55;;;;;;;;;;;22.50;59.80;;;;;;4938108;29;20220;-73
2021/12/16 05:00:22;;;;;;;;;;;22.50;60.00;;;;;;4938365;29;19917;-73
2021/12/16 05:02:57;;;;;;;;;;;22.50;59.10;;;;;;4938091;29;19921;-73
2021/12/16 05:05:38;;;;;;;;;;;22.50;59.30;;;;;;4937937;29;19910;-73
2021/12/16 05:08:05;;;;;;;;;;;22.50;59.40;;;;;;4938077;29;19911;-72
2021/12/16 05:10:38;;;;;;;;;;;22.50;59.60;;;;;;4938253;29;19910;-73
2021/12/16 05:13:12;;;;;;;;;;;22.50;59.20;;;;;;4922358;29;19910;-73
2021/12/16 05:15:41;;;;;;;;;;;22.50;59.50;;;;;;4938018;29;20391;-73
2021/12/16 05:18:09;;;;;;;;;;;22.50;59.70;;;;;;4922324;29;20001;-73
2021/12/16 05:20:38;;;;;;;;;;;22.50;59.30;;;;;;4941659;28;19923;-72
2021/12/16 05:28:18;;;;;;;;;;;22.50;59.60;;;;;;4950531;29;19910;-73
2021/12/16 05:30:44;;;;;;;;;;;22.60;59.30;;;;;;4950288;28;20018;-72
2021/12/16 05:33:11;;;;;;;;;;;22.60;59.40;;;;;;4918794;29;20451;-72
2021/12/16 05:35:40;;;;;;;;;;;22.50;59.60;;;;;;4949945;29;20503;-73
2021/12/16 05:38:06;;;;;;;;;;;22.50;59.90;;;;;;4950319;29;19910;-73
2021/12/16 05:40:33;;;;;;;;;;;22.50;60.10;;;;;;4934562;29;20379;-73
2021/12/16 05:43:24;;;;;;;;;;;22.50;60.00;;;;;;4931248;29;19954;-73
2021/12/16 05:45:50;;;;;;;;;;;22.50;59.50;;;;;;4935568;29;19911;-74
2021/12/16 05:48:17;;;;;;;;;;;22.50;59.70;;;;;;4934145;29;19994;-73
2021/12/16 05:50:45;;;;;;;;;;;22.50;59.60;;;;;;4935522;29;19938;-74
2021/12/16 05:53:11;;;;;;;;;;;22.50;59.70;;;;;;4950296;28;19911;-74
2021/12/16 05:55:37;;;;;;;;;;;22.50;60.00;;;;;;4949852;29;19911;-73
2021/12/16 05:58:20;;;;;;;;;;;22.50;60.00;;;;;;4950201;29;20065;-74
2021/12/16 06:00:48;;;;;;;;;;;22.50;59.90;;;;;;4934376;29;20390;-74
2021/12/16 06:03:14;;;;;;;;;;;22.50;60.00;;;;;;4950243;28;19918;-74
2021/12/16 06:05:40;;;;;;;;;;;22.60;59.70;;;;;;4933612;29;20061;-73
2021/12/16 06:08:06;;;;;;;;;;;22.50;60.00;;;;;;4934215;29;20376;-73
2021/12/16 06:13:04;;;;;;;;;;;22.50;61.10;;;;;;4935160;29;19973;-73
2021/12/16 06:29:15;;;;;;;;;;;22.50;60.60;;;;;;4934893;29;19914;-73
2021/12/16 06:31:41;;;;;;;;;;;22.50;60.30;;;;;;4933760;29;19910;-73
2021/12/16 06:34:06;;;;;;;;;;;22.60;60.50;;;;;;4917803;29;19918;-74
2021/12/16 06:36:32;;;;;;;;;;;22.60;60.20;;;;;;4917362;29;19926;-73
2021/12/16 06:38:58;;;;;;;;;;;22.50;60.30;;;;;;4917678;29;19911;-73
2021/12/16 06:41:38;;;;;;;;;;;22.50;60.10;;;;;;4917483;29;19915;-74
2021/12/16 06:44:28;;;;;;;;;;;22.60;60.10;;;;;;4916866;29;19974;-73
2021/12/16 06:47:00;;;;;;;;;;;22.50;60.40;;;;;;4933852;29;20363;-73
2021/12/16 06:49:27;;;;;;;;;;;22.60;60.30;;;;;;4918044;29;20293;-73
2021/12/16 06:51:57;;;;;;;;;;;22.50;60.50;;;;;;4918572;29;20009;-73
2021/12/16 06:54:30;;;;;;;;;;;22.50;60.40;;;;;;4934399;29;19986;-73
2021/12/16 06:57:17;;;;;;;;;;;22.50;60.50;;;;;;4934895;29;19978;-72
2021/12/16 06:59:53;;;;;;;;;;;22.50;61.10;;;;;;4933594;29;19914;-72
2021/12/16 07:02:43;;;;;;;;;;;22.50;60.50;;;;;;4917188;29;19921;-73
2021/12/16 07:05:09;;;;;;;;;;;22.60;60.80;;;;;;4917133;29;19994;-72
2021/12/16 07:07:35;;;;;;;;;;;22.50;60.70;;;;;;4934272;29;19946;-73
2021/12/16 07:10:00;;;;;;;;;;;22.60;60.70;;;;;;4934340;29;20071;-73
2021/12/16 07:12:35;;;;;;;;;;;22.50;60.70;;;;;;4917418;29;20001;-72
2021/12/16 07:15:06;;;;;;;;;;;22.50;60.70;;;;;;4933175;29;19911;-73
2021/12/16 07:17:31;;;;;;;;;;;22.50;60.50;;;;;;4934279;29;19966;-73
2021/12/16 07:19:57;;;;;;;;;;;22.50;60.80;;;;;;4954118;23;19922;-75
2021/12/16 07:22:23;;;;;;;;;;;22.60;60.90;;;;;;4960995;28;19921;-76
2021/12/16 07:24:48;;;;;;;;;;;22.50;61.00;;;;;;4957028;28;19914;-76
2021/12/16 07:27:14;;;;;;;;;;;22.50;61.60;;;;;;4953714;29;19910;-75
2021/12/16 07:29:40;;;;;;;;;;;22.50;60.70;;;;;;4953520;28;19915;-75
2021/12/16 07:32:06;;;;;;;;;;;22.50;61.90;;;;;;4957420;29;20092;-74
2021/12/16 07:34:33;;;;;;;;;;;22.60;60.80;;;;;;4925655;29;19910;-74
2021/12/16 07:37:08;;;;;;;;;;;22.50;60.90;;;;;;4959490;29;19915;-74
2021/12/16 07:39:38;;;;;;;;;;;22.60;60.70;;;;;;4959014;29;19911;-74
2021/12/16 07:42:05;;;;;;;;;;;22.60;60.80;;;;;;4953467;29;19918;-74
2021/12/16 07:44:32;;;;;;;;;;;22.50;60.70;;;;;;4953066;29;19910;-74
2021/12/16 07:47:00;;;;;;;;;;;22.50;61.00;;;;;;4953553;28;20005;-74
2021/12/16 07:49:28;;;;;;;;;;;22.50;60.30;;;;;;4953194;28;19914;-74
2021/12/16 07:51:54;;;;;;;;;;;22.50;60.50;;;;;;4920434;29;19950;-74
2021/12/16 07:54:20;;;;;;;;;;;22.50;60.40;;;;;;4936774;29;20264;-74
2021/12/16 07:56:47;;;;;;;;;;;22.60;60.80;;;;;;4956640;29;19914;-73
2021/12/16 07:59:13;;;;;;;;;;;22.50;60.60;;;;;;4956767;29;19918;-73
2021/12/16 08:01:39;;;;;;;;;;;22.50;61.00;;;;;;4956476;29;19911;-74
2021/12/16 08:04:05;;;;;;;;;;;22.50;61.20;;;;;;4956591;29;19910;-74
2021/12/16 08:06:32;;;;;;;;;;;22.50;60.70;;;;;;4956251;28;19910;-74
2021/12/16 08:09:05;;;;;;;;;;;22.60;60.90;;;;;;4956438;28;20302;-75
2021/12/16 08:11:33;;;;;;;;;;;22.50;60.60;;;;;;4939535;29;19910;-74
2021/12/16 08:13:59;;;;;;;;;;;22.50;60.40;;;;;;4935969;29;19917;-74
2021/12/16 08:16:25;;;;;;;;;;;22.50;60.20;;;;;;4938891;29;19910;-76
2021/12/16 08:18:51;;;;;;;;;;;22.50;60.40;;;;;;4939197;29;19917;-77
2021/12/16 08:21:17;;;;;;;;;;;22.60;60.80;;;;;;4942765;28;19921;-76
2021/12/16 08:23:44;;;;;;;;;;;22.50;60.40;;;;;;4955844;28;19914;-75
2021/12/16 08:26:10;;;;;;;;;;;22.50;60.60;;;;;;4964427;28;19910;-75
2021/12/16 08:28:35;;;;;;;;;;;22.50;60.30;;;;;;4975709;28;20342;-75
2021/12/16 08:31:01;;;;;;;;;;;22.50;60.40;;;;;;4975388;28;19996;-76
2021/12/16 08:33:27;;;;;;;;;;;22.60;60.60;;;;;;4975448;28;20223;-76
2021/12/16 08:35:53;;;;;;;;;;;22.50;60.70;;;;;;4957608;28;19917;-77
2021/12/16 08:38:22;;;;;;;;;;;22.50;60.30;;;;;;4974974;28;19957;-76
2021/12/16 08:40:50;;;;;;;;;;;22.50;60.70;;;;;;4974947;28;19910;-76
2021/12/16 08:43:16;;;;;;;;;;;22.50;60.40;;;;;;4975191;28;20005;-76
2021/12/16 08:45:42;;;;;;;;;;;22.60;60.40;;;;;;4957392;28;20294;-76
2021/12/16 08:48:08;;;;;;;;;;;22.50;60.30;;;;;;4975137;28;20413;-77
2021/12/16 08:50:37;;;;;;;;;;;22.50;60.50;;;;;;4957448;28;19910;-76
2021/12/16 08:53:04;;;;;;;;;;;22.60;61.10;;;;;;4975155;28;19914;-77
2021/12/16 08:55:32;;;;;;;;;;;22.50;60.50;;;;;;4974625;28;20429;-76
2021/12/16 08:57:57;;;;;;;;;;;22.50;60.50;;;;;;4975000;28;20383;-77
2021/12/16 09:00:26;;;;;;;;;;;22.60;60.70;;;;;;4957457;28;19910;-76
2021/12/16 09:02:52;;;;;;;;;;;22.50;60.30;;;;;;4961789;28;20394;-77
2021/12/16 09:05:18;;;;;;;;;;;22.50;60.90;;;;;;4946138;28;19910;-77
2021/12/16 09:07:46;;;;;;;;;;;22.60;60.80;;;;;;4938303;29;19917;-76
2021/12/16 09:10:13;;;;;;;;;;;22.60;60.80;;;;;;4920648;29;19911;-77
2021/12/16 09:12:53;;;;;;;;;;;22.60;60.80;;;;;;4955439;28;19910;-77
2021/12/16 09:15:20;;;;;;;;;;;22.60;60.90;;;;;;4938442;29;19966;-77
2021/12/16 09:17:45;;;;;;;;;;;22.60;60.90;;;;;;4922173;29;19910;-77
2021/12/16 09:20:11;;;;;;;;;;;22.60;61.20;;;;;;4954915;29;19964;-77
2021/12/16 09:22:37;;;;;;;;;;;22.60;61.60;;;;;;4918825;29;20367;-77
2021/12/16 09:25:03;;;;;;;;;;;22.60;61.10;;;;;;4918962;29;19911;-77
2021/12/16 09:27:29;;;;;;;;;;;22.60;61.00;;;;;;4935753;29;19910;-77
2021/12/16 09:29:56;;;;;;;;;;;22.60;61.10;;;;;;4919096;29;19918;-85
2021/12/16 09:32:24;;;;;;;;;;;22.60;60.70;;;;;;4903211;29;19997;-84
2021/12/16 09:34:50;;;;;;;;;;;22.40;56.80;;;;;;4903162;29;19973;-76
2021/12/16 09:37:16;;;;;;;;;;;22.20;54.80;;;;;;4935664;29;19910;-77
2021/12/16 09:39:42;;;;;;;;;;;22.20;57.40;;;;;;4935790;29;19915;-76
2021/12/16 09:42:09;;;;;;;;;;;22.30;56.90;;;;;;4918549;29;20268;-77
2021/12/16 09:44:36;;;;;;;;;;;22.30;56.50;;;;;;4918254;29;20356;-75
2021/12/16 09:47:03;;;;;;;;;;;22.30;56.30;;;;;;4935477;29;20350;-77
2021/12/16 09:49:29;;;;;;;;;;;22.40;56.50;;;;;;4935829;29;19914;-77
2021/12/16 09:51:56;;;;;;;;;;;22.40;57.10;;;;;;4935373;29;19918;-89
2021/12/16 09:54:24;;;;;;;;;;;22.40;57.60;;;;;;4918431;29;19911;-79
2021/12/16 09:56:50;;;;;;;;;;;22.40;58.10;;;;;;4935403;29;19917;-75
2021/12/16 09:59:16;;;;;;;;;;;22.50;58.50;;;;;;4918533;29;19910;-76
2021/12/16 10:01:43;;;;;;;;;;;22.50;58.90;;;;;;4935319;29;19915;-75
2021/12/16 10:04:13;;;;;;;;;;;22.50;59.30;;;;;;4935153;29;20272;-76
2021/12/16 10:06:40;;;;;;;;;;;22.50;59.40;;;;;;4935224;29;19917;-75
2021/12/16 10:09:07;;;;;;;;;;;22.50;59.70;;;;;;4935052;29;19918;-77
2021/12/16 10:11:34;;;;;;;;;;;22.50;60.10;;;;;;4935222;29;19910;-76
2021/12/16 10:19:10;;;;;;;;;;;22.60;59.30;;;;;;4933992;29;19997;-77
2021/12/16 10:21:37;;;;;;;;;;;22.60;59.10;;;;;;4935340;29;20463;-77
2021/12/16 10:24:03;;;;;;;;;;;22.60;58.20;;;;;;4934760;29;20336;-77
2021/12/16 10:26:32;;;;;;;;;;;22.60;59.60;;;;;;4934562;29;19911;-78
2021/12/16 10:28:58;;;;;;;;;;;22.70;65.00;;;;;;4917705;29;20367;-77
2021/12/16 10:31:24;;;;;;;;;;;22.80;71.20;;;;;;4934952;29;19918;-77
2021/12/16 10:33:54;;;;;;;;;;;22.80;72.10;;;;;;4934747;29;20438;-77
2021/12/16 10:36:23;;;;;;;;;;;22.80;70.30;;;;;;4917698;29;19911;-77
2021/12/16 10:38:59;;;;;;;;;;;22.80;72.80;;;;;;4934611;29;19966;-77
2021/12/16 10:41:27;;;;;;;;;;;22.90;67.10;;;;;;4934950;29;19918;-75
2021/12/16 10:43:55;;;;;;;;;;;22.90;69.10;;;;;;4917440;29;20307;-77
2021/12/16 10:46:25;;;;;;;;;;;22.90;69.50;;;;;;4917637;29;19917;-76
2021/12/16 10:48:53;;;;;;;;;;;22.80;66.60;;;;;;4934565;29;19962;-76
2021/12/16 10:51:24;;;;;;;;;;;22.80;66.60;;;;;;4917766;29;19974;-76
2021/12/16 10:53:49;;;;;;;;;;;22.80;66.00;;;;;;4934440;29;19926;-75
2021/12/16 10:56:16;;;;;;;;;;;22.80;65.30;;;;;;4934365;29;20367;-77
2021/12/16 10:58:48;;;;;;;;;;;22.80;66.30;;;;;;4949884;29;19961;-79
2021/12/16 11:01:30;;;;;;;;;;;22.80;66.30;;;;;;4953898;29;19953;-78
2021/12/16 11:03:56;;;;;;;;;;;22.80;64.60;;;;;;4950601;28;19969;-75
2021/12/16 11:06:30;;;;;;;;;;;22.90;64.70;;;;;;4953424;29;19961;-74
2021/12/16 11:09:15;;;;;;;;;;;22.90;65.30;;;;;;4953736;29;19910;-75
2021/12/16 11:11:41;;;;;;;;;;;22.90;63.70;;;;;;4953396;29;19914;-75
2021/12/16 11:14:06;;;;;;;;;;;22.90;63.30;;;;;;4953216;28;20423;-75
2021/12/16 11:16:33;;;;;;;;;;;22.80;62.40;;;;;;4952984;28;19977;-75
2021/12/16 11:18:59;;;;;;;;;;;22.80;62.40;;;;;;4952959;29;19910;-75
2021/12/16 11:21:31;;;;;;;;;;;22.80;62.30;;;;;;4953692;28;20390;-75
2021/12/16 11:23:57;;;;;;;;;;;22.80;62.40;;;;;;4953475;29;19914;-75
2021/12/16 11:26:28;;;;;;;;;;;22.70;62.50;;;;;;4936010;29;20005;-75
2021/12/16 11:28:54;;;;;;;;;;;22.70;62.40;;;;;;4936856;29;19956;-75
2021/12/16 11:31:25;;;;;;;;;;;22.70;62.50;;;;;;4957694;28;19916;-74
2021/12/16 11:34:02;;;;;;;;;;;22.70;62.40;;;;;;4946483;29;19911;-75
2021/12/16 11:36:29;;;;;;;;;;;22.70;62.50;;;;;;4956861;29;19914;-76
2021/12/16 11:39:01;;;;;;;;;;;22.70;62.40;;;;;;4957331;29;19946;-74
2021/12/16 11:41:29;;;;;;;;;;;22.70;62.40;;;;;;4957351;29;20364;-75
2021/12/16 11:44:00;;;;;;;;;;;22.70;62.40;;;;;;4956971;28;19921;-75
2021/12/16 11:46:38;;;;;;;;;;;22.70;62.40;;;;;;4956822;29;19916;-75
2021/12/16 11:49:21;;;;;;;;;;;22.70;62.40;;;;;;4956930;29;19981;-75
2021/12/16 11:51:50;;;;;;;;;;;22.70;63.00;;;;;;4956831;29;19918;-75
2021/12/16 11:54:25;;;;;;;;;;;22.70;62.40;;;;;;4939583;29;19914;-75
2021/12/16 11:56:51;;;;;;;;;;;22.70;62.30;;;;;;4956774;29;19918;-75
2021/12/16 11:59:25;;;;;;;;;;;22.70;62.40;;;;;;4956869;29;19914;-75
2021/12/16 12:01:51;;;;;;;;;;;22.70;62.30;;;;;;4956665;29;19989;-75
2021/12/16 12:04:23;;;;;;;;;;;22.70;62.40;;;;;;4956774;28;20279;-75
2021/12/16 12:06:48;;;;;;;;;;;22.70;62.50;;;;;;4956849;29;19917;-75
2021/12/16 12:09:14;;;;;;;;;;;22.70;62.40;;;;;;4956622;29;20371;-75
2021/12/16 12:11:42;;;;;;;;;;;22.70;62.40;;;;;;4956485;29;20029;-75
2021/12/16 12:14:10;;;;;;;;;;;22.70;62.30;;;;;;4939616;29;19910;-75
2021/12/16 12:16:40;;;;;;;;;;;22.70;62.30;;;;;;4956284;29;19915;-76
2021/12/16 12:19:24;;;;;;;;;;;22.70;62.30;;;;;;4956170;29;20092;-75
2021/12/16 12:21:54;;;;;;;;;;;22.70;62.30;;;;;;4939489;29;20272;-74
2021/12/16 12:24:21;;;;;;;;;;;22.70;62.30;;;;;;4956010;29;19961;-74
2021/12/16 12:26:50;;;;;;;;;;;22.70;62.30;;;;;;4956086;29;20405;-75
2021/12/16 12:29:27;;;;;;;;;;;22.70;62.00;;;;;;4956189;29;20387;-74
2021/12/16 12:31:55;;;;;;;;;;;22.70;62.00;;;;;;4956266;28;19974;-75
2021/12/16 12:34:20;;;;;;;;;;;22.70;62.00;;;;;;4955797;29;19910;-74
2021/12/16 12:36:48;;;;;;;;;;;22.70;62.00;;;;;;4938979;29;19914;-74
2021/12/16 12:39:17;;;;;;;;;;;22.70;62.00;;;;;;4938864;29;19918;-74
2021/12/16 12:41:44;;;;;;;;;;;22.70;62.00;;;;;;4937812;29;19962;-75
2021/12/16 12:44:09;;;;;;;;;;;22.70;62.00;;;;;;4955866;28;20359;-75
2021/12/16 12:46:36;;;;;;;;;;;22.70;62.10;;;;;;4938943;29;19966;-75
2021/12/16 12:49:05;;;;;;;;;;;22.70;62.10;;;;;;4938643;29;19918;-75
2021/12/16 12:51:32;;;;;;;;;;;22.70;62.00;;;;;;4955870;29;20366;-74
2021/12/16 12:53:59;;;;;;;;;;;22.70;62.00;;;;;;4955726;28;20007;-75
2021/12/16 12:56:29;;;;;;;;;;;22.60;62.00;;;;;;4955331;29;20009;-75
2021/12/16 12:58:59;;;;;;;;;;;22.60;62.00;;;;;;4955683;28;20004;-75
2021/12/16 13:01:36;;;;;;;;;;;22.70;62.10;;;;;;4955614;28;19925;-75
2021/12/16 13:04:13;;;;;;;;;;;22.60;62.00;;;;;;4955710;28;19918;-75
2021/12/16 13:06:50;;;;;;;;;;;22.60;61.90;;;;;;4955259;29;19949;-75
2021/12/16 13:09:42;;;;;;;;;;;22.70;62.00;;;;;;4955449;29;19918;-75
2021/12/16 13:12:30;;;;;;;;;;;22.60;61.90;;;;;;4923279;29;19910;-74
2021/12/16 13:15:06;;;;;;;;;;;22.60;61.90;;;;;;4955306;29;19915;-75
2021/12/16 13:23:27;;;;;;;;;;;22.60;61.90;;;;;;4955522;29;19910;-75
2021/12/16 13:23:30;;;;;;;;;;;22.70;62.00;;;;;;4934737;29;19925;-77
2021/12/16 13:31:04;;;;;;;;;;;22.70;61.80;;;;;;4936557;29;19914;-78
2021/12/16 13:33:42;;;;;;;;;;;22.70;61.80;;;;;;4936167;29;20009;-78
2021/12/16 13:36:17;;;;;;;;;;;22.70;61.70;;;;;;4935725;29;19945;-78
2021/12/16 13:38:45;;;;;;;;;;;22.70;61.60;;;;;;4953419;29;19982;-78
2021/12/16 13:41:13;;;;;;;;;;;22.70;61.60;;;;;;4953164;29;20024;-78
2021/12/16 13:43:53;;;;;;;;;;;22.60;61.60;;;;;;4935722;29;19914;-78
2021/12/16 13:49:13;;;;;;;;;;;22.70;61.70;;;;;;4935732;29;19992;-78
2021/12/16 14:03:06;;;;;;;;;;;22.70;61.70;;;;;;4935453;29;20059;-78
2021/12/16 14:05:33;;;;;;;;;;;22.60;61.60;;;;;;4935061;29;19930;-78
2021/12/16 14:08:04;;;;;;;;;;;22.60;61.60;;;;;;4935475;29;19980;-77
2021/12/16 14:10:44;;;;;;;;;;;22.60;61.60;;;;;;4952640;29;19922;-77
2021/12/16 14:16:30;;;;;;;;;;;22.60;61.50;;;;;;4952126;29;19914;-78
2021/12/16 14:38:41;;;;;;;;;;;22.60;61.30;;;;;;4931684;28;19997;-83
2021/12/16 14:41:12;;;;;;;;;;;22.70;61.30;;;;;;4954060;28;20004;-81
2021/12/16 14:44:07;;;;;;;;;;;22.60;60.80;;;;;;4938353;28;19924;-77
2021/12/16 14:46:39;;;;;;;;;;;22.50;57.20;;;;;;4957648;28;20001;-76
2021/12/16 14:49:04;;;;;;;;;;;22.50;57.90;;;;;;4956593;28;19936;-77
2021/12/16 14:51:30;;;;;;;;;;;22.40;57.40;;;;;;4953782;28;19926;-78
2021/12/16 14:53:56;;;;;;;;;;;22.40;57.10;;;;;;4970465;28;19917;-78
2021/12/16 14:56:26;;;;;;;;;;;22.50;56.10;;;;;;4970805;28;20012;-77
2021/12/16 14:58:55;;;;;;;;;;;22.50;56.00;;;;;;4953122;28;20310;-78
2021/12/16 15:01:27;;;;;;;;;;;22.60;55.60;;;;;;4951664;28;19914;-82
2021/12/16 15:03:53;;;;;;;;;;;22.60;55.50;;;;;;4951686;28;20259;-80
2021/12/16 15:06:26;;;;;;;;;;;22.70;55.20;;;;;;4953132;28;19918;-78
2021/12/16 15:09:14;;;;;;;;;;;22.80;55.60;;;;;;4956164;28;19945;-78
2021/12/16 15:12:05;;;;;;;;;;;22.90;56.10;;;;;;4952951;28;19914;-78
2021/12/16 15:14:49;;;;;;;;;;;22.90;56.00;;;;;;4934964;28;19913;-78
2021/12/16 15:44:50;;;;;;;;;;;23.10;58.00;;;;;;4968254;28;19917;-77
2021/12/16 15:47:16;;;;;;;;;;;23.10;58.10;;;;;;4950582;28;20348;-77
2021/12/16 15:49:41;;;;;;;;;;;23.10;58.20;;;;;;4950650;28;20095;-77
2021/12/16 15:52:07;;;;;;;;;;;23.10;57.80;;;;;;4949264;28;19913;-82
2021/12/16 15:54:36;;;;;;;;;;;23.10;58.50;;;;;;4961126;28;19910;-79
2021/12/16 15:57:02;;;;;;;;;;;23.10;58.60;;;;;;4968770;28;20302;-77
2021/12/16 15:59:29;;;;;;;;;;;23.10;58.70;;;;;;4965401;28;19929;-77
2021/12/16 16:01:55;;;;;;;;;;;23.10;58.80;;;;;;4968624;28;20236;-77
2021/12/16 16:04:26;;;;;;;;;;;23.10;58.70;;;;;;4934307;28;19976;-78
2021/12/16 16:06:56;;;;;;;;;;;23.10;59.10;;;;;;4947142;28;19994;-79
2021/12/16 16:09:22;;;;;;;;;;;23.10;59.10;;;;;;4945761;28;19910;-77
2021/12/16 16:11:53;;;;;;;;;;;23.10;59.20;;;;;;4944907;28;19922;-76
2021/12/16 16:14:21;;;;;;;;;;;23.10;59.30;;;;;;4944678;28;19917;-76
2021/12/16 16:16:50;;;;;;;;;;;23.10;59.30;;;;;;4962260;28;19914;-79
2021/12/16 16:19:19;;;;;;;;;;;23.10;59.40;;;;;;4937002;29;20001;-77
2021/12/16 16:21:46;;;;;;;;;;;23.10;59.40;;;;;;4954108;28;20344;-76
2021/12/16 16:24:12;;;;;;;;;;;23.10;59.70;;;;;;4954188;28;19914;-78
2021/12/16 16:26:39;;;;;;;;;;;23.10;59.80;;;;;;4921053;29;20369;-78
2021/12/16 16:29:06;;;;;;;;;;;23.10;59.80;;;;;;4954095;29;19910;-77
2021/12/16 16:31:33;;;;;;;;;;;23.10;60.00;;;;;;4937023;29;19917;-78
2021/12/16 16:34:00;;;;;;;;;;;23.10;60.00;;;;;;4921525;29;19914;-78
2021/12/16 16:36:28;;;;;;;;;;;23.00;59.90;;;;;;4953816;29;19956;-78
2021/12/16 16:38:56;;;;;;;;;;;23.00;59.90;;;;;;4954361;28;19911;-77
2021/12/16 16:41:23;;;;;;;;;;;23.00;59.90;;;;;;4936495;29;19961;-78
2021/12/16 16:43:51;;;;;;;;;;;23.00;60.00;;;;;;4936566;29;20409;-78
2021/12/16 16:46:30;;;;;;;;;;;23.00;59.90;;;;;;4936114;29;19910;-78
2021/12/16 16:51:31;;;;;;;;;;;23.00;60.00;;;;;;4972730;28;20013;-78
2021/12/16 16:54:02;;;;;;;;;;;23.00;60.00;;;;;;4972987;28;19909;-78
2021/12/16 16:56:42;;;;;;;;;;;23.00;60.10;;;;;;4955324;28;19914;-76
2021/12/16 16:59:09;;;;;;;;;;;23.00;60.10;;;;;;4955507;28;20423;-77
2021/12/16 17:01:35;;;;;;;;;;;23.00;60.10;;;;;;4972786;28;20347;-77
2021/12/16 17:04:02;;;;;;;;;;;23.00;60.20;;;;;;4962524;28;19958;-77
2021/12/16 17:06:28;;;;;;;;;;;23.00;60.20;;;;;;4952931;28;19921;-77
2021/12/16 17:08:56;;;;;;;;;;;23.00;60.30;;;;;;4953746;29;20322;-77
2021/12/16 17:11:22;;;;;;;;;;;23.00;60.30;;;;;;4953210;29;19910;-76
2021/12/16 17:18:51;;;;;;;;;;;23.00;60.40;;;;;;4953186;29;19911;-78
2021/12/16 17:21:22;;;;;;;;;;;23.00;60.40;;;;;;4935791;29;19914;-77
2021/12/16 17:23:52;;;;;;;;;;;23.00;60.40;;;;;;4952830;29;19932;-77
2021/12/16 17:26:21;;;;;;;;;;;23.00;60.50;;;;;;4952681;28;19949;-77
2021/12/16 17:28:50;;;;;;;;;;;22.90;60.50;;;;;;4935310;29;20361;-77
2021/12/16 17:31:15;;;;;;;;;;;23.00;60.50;;;;;;4952976;29;19996;-77
2021/12/16 17:33:41;;;;;;;;;;;23.00;60.60;;;;;;4935416;29;20395;-77
2021/12/16 17:36:06;;;;;;;;;;;22.90;60.60;;;;;;4952990;29;19911;-77
2021/12/16 17:38:32;;;;;;;;;;;23.00;60.70;;;;;;4952761;29;20291;-77
2021/12/16 17:40:58;;;;;;;;;;;23.00;61.00;;;;;;4952992;29;20342;-77
2021/12/16 17:43:26;;;;;;;;;;;23.00;61.00;;;;;;4952620;29;19924;-77
2021/12/16 17:45:52;;;;;;;;;;;23.00;61.10;;;;;;4952408;29;19962;-81
2021/12/16 17:48:20;;;;;;;;;;;23.00;61.30;;;;;;4923555;29;20033;-79
2021/12/16 17:50:47;;;;;;;;;;;23.00;61.10;;;;;;4933487;29;19933;-80
2021/12/16 17:53:15;;;;;;;;;;;23.00;61.30;;;;;;4933585;29;19911;-78
2021/12/16 17:55:45;;;;;;;;;;;23.00;61.00;;;;;;4933362;29;20339;-79
2021/12/16 17:58:12;;;;;;;;;;;23.10;61.10;;;;;;4933705;29;19978;-79
2021/12/16 18:00:38;;;;;;;;;;;23.10;60.90;;;;;;4933371;29;19910;-78
2021/12/16 18:03:05;;;;;;;;;;;23.10;61.10;;;;;;4933399;29;19915;-79
2021/12/16 18:05:39;;;;;;;;;;;23.10;62.00;;;;;;4933499;29;19917;-76